Terminal Aerodrome Forecast
Issued by NWS

Home | Current Version | Previous Version | Text Only | Print | Product List | Glossary On
Versions: 1 2 3 4 5 6 7 8 9 10 11 12 13 14 15 16 17 18 19
000
FTAK31 PANC 161147
TAFAAQ
TAF
PAAQ 161147Z 1612/1712 12014G25KT P6SM VCSH OVC045
     FM161500 10007KT P6SM VCSH OVC045
     FM162000 VRB03KT P6SM VCSH BKN035=

USA.gov is the U.S. government's official web portal to all federal, state and local government web resources and services.